Terminal Aerodrome Forecast
Issued by NWS

Home | Current Version | Previous Version | Text Only | Print | Product List | Glossary On
Versions: 1 2 3 4 5 6 7 8 9 10 11 12 13 14 15 16 17 18 19 20 21 22 23 24 25 26 27 28 29 30 31 32
302
FTUS43 KPAH 250121 AAA
TAFCGI
TAF AMD
KCGI 250121Z 2501/2524 18011G18KT P6SM BKN200
     FM250200 17005KT P6SM FEW050 BKN250
     FM251500 19010G18KT P6SM SCT040 BKN250=

USA.gov is the U.S. government's official web portal to all federal, state and local government web resources and services.